Latest Weather Observations for Jacup

IDW60801

Issued at 5:05 am WST Thursday 31 July 2014 (issued every 30 minutes, with the page automatically refreshed every 10 minutes)

About weather observations | Map of weather stations | Latest weather observations for WA | Other Formats
Station Details ID: 010905 Name: JACUP Lat: -33.89 Lon: 119.11 Height: 305.0 m
Data from the previous 72 hours. | See also: Recent months at Jacup
Date/Time
WST
Temp
°C
App
Temp
°C
Dew
Point
Rel
Hum
%
Delta-T
°C
Wind Press
QNH
hPa
Press
MSL
hPa
Rain
since 9 am
mm
Dir
 
Spd
km/h
Gust
km/h
Spd
kts
Gust
kts
31/05:00am 8.1 4.0 4.1 76 1.8 SW 15 26 8 14 1021.7 1021.9 0.4
31/04:30am 7.7 4.2 3.4 74 1.9 W 11 15 6 8 1021.5 - 0.4
31/04:00am 8.7 4.4 3.5 70 2.3 WSW 15 24 8 13 1021.4 1021.6 0.4
31/03:30am 8.6 4.0 3.8 72 2.1 WSW 17 22 9 12 1021.2 - 0.4
31/03:00am 8.3 3.7 3.8 73 2.0 WSW 17 28 9 15 1021.1 1021.2 0.2
31/02:30am 8.6 3.1 4.0 73 2.0 WSW 22 33 12 18 1020.7 - 0.2
31/02:00am 8.5 4.0 4.3 75 1.9 WSW 17 24 9 13 1020.6 1020.8 0.2
31/01:30am 8.2 3.7 4.4 77 1.7 WSW 17 24 9 13 1020.3 - 0.2
31/01:00am 8.6 3.3 5.0 78 1.6 WSW 22 33 12 18 1019.9 1020.1 0.2
31/12:30am 9.5 5.1 7.3 86 1.1 SW 20 39 11 21 1019.6 - 0.2
31/12:00am 10.0 6.2 9.1 94 0.5 WSW 19 30 10 16 1019.2 1019.4 0.2
 
Date/Time
WST
Temp
°C
App
Temp
°C
Dew
Point
Rel
Hum
%
Delta-T
°C
Wind Press
QNH
hPa
Press
MSL
hPa
Rain
since 9 am
mm
Dir
 
Spd
km/h
Gust
km/h
Spd
kts
Gust
kts
30/11:30pm 10.1 4.9 9.0 93 0.6 WSW 26 48 14 26 1019.0 - 0.2
30/11:00pm 10.0 5.6 8.8 92 0.6 W 22 32 12 17 1018.6 1018.8 0.0
30/10:30pm 10.7 5.8 8.5 86 1.1 W 24 35 13 19 1018.5 - 0.0
30/10:00pm 10.6 6.0 8.2 85 1.2 W 22 32 12 17 1018.4 1018.6 0.0
30/09:30pm 10.8 6.6 8.4 85 1.2 W 20 32 11 17 1018.4 - 0.0
30/09:00pm 11.2 6.7 8.4 83 1.4 W 22 35 12 19 1018.0 1018.1 0.0
30/08:30pm 11.3 7.4 8.5 83 1.4 W 19 30 10 16 1017.7 - 0.0
30/08:00pm 12.1 8.2 8.6 79 1.8 W 19 30 10 16 1017.8 1017.9 0.0
30/07:30pm 12.6 9.1 8.9 78 1.9 WSW 17 26 9 14 1018.1 - 0.0
30/07:00pm 12.9 9.0 8.6 75 2.2 W 19 28 10 15 1017.8 1017.9 0.0
30/06:30pm 12.5 9.3 8.4 76 2.1 WNW 15 26 8 14 1017.2 - 0.0
30/06:00pm 13.2 9.9 8.1 71 2.6 W 15 24 8 13 1017.0 1017.2 0.0
30/05:30pm 13.8 9.1 7.8 67 3.0 W 22 39 12 21 1016.8 - 0.0
30/05:00pm 14.9 9.5 7.9 63 3.5 W 26 39 14 21 1016.5 1016.7 0.0
30/04:31pm 15.7 9.9 8.0 60 3.9 W 28 48 15 26 1016.2 - 0.0
30/04:30pm 15.7 10.0 8.2 61 3.8 W 28 39 15 21 1016.2 - 0.0
30/04:00pm 16.2 10.6 8.7 61 3.9 W 28 41 15 22 1016.2 1016.4 0.0
30/03:30pm 15.9 9.5 8.4 61 3.9 W 32 46 17 25 1016.0 - 0.0
30/03:00pm 17.0 10.5 8.2 56 4.5 W 32 50 17 27 1015.8 1016.0 0.0
30/02:47pm 16.7 10.9 8.1 57 4.4 W 28 46 15 25 1015.8 - 0.0
30/02:30pm 17.3 10.9 8.7 57 4.5 W 32 46 17 25 1015.8 - 0.0
30/02:00pm 17.7 11.3 8.6 55 4.8 W 32 50 17 27 1016.0 1016.2 0.0
30/01:55pm 17.9 11.9 8.5 54 4.9 W 30 50 16 27 1016.0 - 0.0
30/01:30pm 18.3 12.4 9.1 55 4.9 WNW 30 46 16 25 1016.1 - 0.0
30/01:08pm 17.6 12.0 8.7 56 4.7 W 28 46 15 25 1016.3 - 0.0
30/01:00pm 17.2 10.9 8.9 58 4.4 W 32 46 17 25 1016.4 1016.6 0.0
30/12:32pm 17.1 10.6 8.0 55 4.7 W 32 50 17 27 1016.7 - 0.0
30/12:30pm 17.8 12.0 9.4 58 4.5 W 30 46 16 25 1016.7 - 0.0
30/12:03pm 16.4 10.4 8.6 60 4.0 W 30 50 16 27 1017.0 - 0.0
30/12:00pm 16.7 11.3 9.4 62 3.9 W 28 44 15 24 1017.1 1017.3 0.0
30/11:42am 15.6 10.0 8.8 64 3.5 W 28 46 15 25 1017.5 - 0.0
30/11:30am 15.0 10.0 9.4 69 2.9 W 26 41 14 22 1017.8 - 0.0
30/11:00am 15.2 9.7 9.1 67 3.2 W 28 46 15 25 1018.2 1018.3 0.0
30/10:44am 14.6 9.1 9.2 70 2.8 W 28 46 15 25 1018.3 - 0.0
30/10:30am 14.4 9.3 9.2 71 2.7 W 26 44 14 24 1018.4 - 0.0
30/10:00am 14.0 8.5 9.0 72 2.6 W 28 48 15 26 1018.7 1018.9 0.0
30/09:38am 13.8 8.2 8.6 71 2.7 WNW 28 48 15 26 1018.5 - 0.0
30/09:30am 14.1 9.3 8.9 71 2.7 WNW 24 39 13 21 1018.5 - 0.0
30/09:00am 13.2 7.6 8.7 74 2.3 W 28 46 15 25 1018.6 1018.8 0.0
30/08:49am 13.2 7.4 8.1 71 2.6 W 28 48 15 26 1018.6 - 0.0
30/08:30am 12.9 8.1 8.8 76 2.1 W 24 33 13 18 1018.6 - 0.0
30/08:00am 12.6 8.0 8.3 75 2.2 W 22 35 12 19 1018.4 1018.6 0.0
30/07:30am 12.3 7.8 8.6 78 1.9 WNW 22 33 12 18 1018.5 - 0.0
30/07:00am 12.0 8.1 8.5 79 1.8 WNW 19 30 10 16 1018.6 1018.8 0.0
30/06:30am 11.9 7.7 8.4 79 1.8 WNW 20 30 11 16 1018.5 - 0.0
30/06:00am 11.5 7.6 8.5 82 1.5 WNW 19 33 10 18 1018.5 1018.7 0.0
30/05:30am 10.6 7.1 8.7 88 1.0 WNW 17 24 9 13 1018.4 - 0.0
30/05:00am 11.1 7.0 8.5 84 1.3 WNW 20 28 11 15 1018.3 1018.4 0.0
30/04:30am 11.3 7.0 9.2 87 1.1 WNW 22 35 12 19 1018.3 - 0.0
30/04:00am 11.1 6.8 9.4 89 0.9 WNW 22 35 12 19 1018.2 1018.3 0.0
30/03:30am 10.7 6.8 9.3 91 0.7 WNW 20 30 11 16 1018.4 - 0.0
30/03:00am 11.0 6.8 9.6 91 0.7 WNW 22 33 12 18 1018.5 1018.7 0.0
30/02:30am 11.2 7.1 10.1 93 0.6 WNW 22 32 12 17 1018.7 - 0.0
30/02:00am 11.5 7.0 10.2 92 0.7 WNW 24 43 13 23 1018.9 1019.1 0.0
30/01:30am 11.4 7.7 10.3 93 0.6 WNW 20 32 11 17 1019.1 - 0.0
30/01:00am 11.4 7.7 10.1 92 0.7 WNW 20 30 11 16 1019.2 1019.4 0.0
30/12:30am 11.9 7.7 9.8 87 1.1 WNW 22 33 12 18 1019.4 - 0.0
30/12:00am 11.7 7.5 9.9 89 0.9 WNW 22 32 12 17 1019.5 1019.7 0.0
 
Date/Time
WST
Temp
°C
App
Temp
°C
Dew
Point
Rel
Hum
%
Delta-T
°C
Wind Press
QNH
hPa
Press
MSL
hPa
Rain
since 9 am
mm
Dir
 
Spd
km/h
Gust
km/h
Spd
kts
Gust
kts
29/11:30pm 11.4 7.6 9.8 90 0.8 W 20 33 11 18 1019.7 - 0.0
29/11:00pm 11.0 7.1 9.6 91 0.7 WNW 20 32 11 17 1020.0 1020.2 0.0
29/10:30pm 10.9 7.6 9.5 91 0.7 WNW 17 24 9 13 1020.0 - 0.0
29/10:00pm 11.8 8.0 9.7 87 1.1 WNW 20 30 11 16 1020.2 1020.4 0.0
29/09:30pm 13.0 9.3 10.0 82 1.6 WNW 20 32 11 17 1020.2 - 0.0
29/09:00pm 13.3 9.8 10.1 81 1.7 WNW 19 30 10 16 1020.4 1020.6 0.0
29/08:30pm 13.3 9.5 9.9 80 1.8 WNW 20 32 11 17 1020.4 - 0.0
29/08:00pm 13.1 9.3 9.2 77 2.0 WNW 19 28 10 15 1020.5 1020.7 0.0
29/07:30pm 13.2 10.1 8.7 74 2.3 WNW 15 22 8 12 1020.6 - 0.0
29/07:00pm 13.6 11.2 8.7 72 2.5 WNW 11 17 6 9 1020.4 1020.6 0.0
29/06:30pm 13.9 10.7 8.3 69 2.8 WNW 15 26 8 14 1020.4 - 0.0
29/06:00pm 14.0 10.4 8.4 69 2.8 WNW 17 26 9 14 1020.3 1020.5 0.0
29/05:30pm 14.2 10.7 8.8 70 2.8 WNW 17 32 9 17 1020.0 - 0.0
29/05:00pm 14.5 10.4 8.5 67 3.1 WNW 20 32 11 17 1019.9 1020.1 0.0
29/04:30pm 14.9 11.9 9.1 68 3.0 WNW 15 22 8 12 1020.0 - 0.0
29/04:00pm 15.3 11.3 9.0 66 3.3 WNW 20 33 11 18 1020.0 1020.2 0.0
29/03:30pm 15.5 11.7 9.2 66 3.3 WNW 19 30 10 16 1020.1 - 0.0
29/03:00pm 15.9 11.9 8.9 63 3.6 WNW 20 35 11 19 1019.9 1020.1 0.0
29/02:30pm 16.1 11.4 9.1 63 3.7 WNW 24 35 13 19 1019.8 - 0.0
29/02:00pm 17.5 12.0 9.2 58 4.4 WNW 28 43 15 23 1019.5 1019.7 0.0
29/01:44pm 17.7 12.2 9.1 57 4.5 WNW 28 46 15 25 1019.6 - 0.0
29/01:30pm 17.4 12.3 9.3 59 4.3 W 26 35 14 19 1019.7 - 0.0
29/01:00pm 17.7 12.1 8.8 56 4.7 WNW 28 44 15 24 1020.0 1020.2 0.0
29/12:30pm 17.4 11.6 9.6 60 4.2 WNW 30 48 16 26 1020.3 - 0.0
29/12:28pm 17.2 11.3 9.1 59 4.3 WNW 30 48 16 26 1020.3 - 0.0
29/12:00pm 17.0 11.8 8.9 59 4.2 W 26 41 14 22 1020.7 1020.9 0.0
29/11:42am 17.1 11.8 9.8 62 3.9 W 28 46 15 25 1021.0 - 0.0
29/11:30am 16.6 10.8 9.3 62 3.8 W 30 44 16 24 1021.0 - 0.0
29/11:00am 16.7 12.2 9.9 64 3.6 W 24 39 13 21 1021.3 1021.5 0.0
29/10:42am 15.4 9.9 9.3 67 3.2 W 28 46 15 25 1021.5 - 0.0
29/10:30am 15.4 9.7 9.7 69 3.0 W 30 43 16 23 1021.6 - 0.0
29/10:00am 15.0 10.7 10.6 75 2.3 W 24 35 13 19 1021.6 1021.8 0.0
29/09:30am 14.5 10.2 10.9 79 1.9 WNW 24 35 13 19 1021.5 - 0.0
29/09:00am 13.5 9.8 10.3 81 1.7 WNW 20 35 11 19 1021.3 1021.5 0.4
29/08:30am 12.3 8.7 10.4 88 1.0 WNW 20 33 11 18 1021.2 - 0.4
29/08:00am 11.1 7.9 9.9 92 0.6 WNW 17 24 9 13 1020.9 1021.0 0.4
29/07:30am 10.2 6.9 9.6 96 0.3 WNW 17 24 9 13 1020.6 - 0.4
29/07:00am 9.6 6.5 9.0 96 0.3 NW 15 20 8 11 1020.6 1020.8 0.4
29/06:30am 9.8 7.1 9.0 95 0.4 WNW 13 19 7 10 1020.6 - 0.2
29/06:00am 10.1 8.2 9.0 93 0.6 W 9 15 5 8 1020.5 1020.7 0.2
29/05:30am 10.6 6.7 9.4 92 0.6 WNW 20 28 11 15 1019.7 - 0.2
29/05:00am 10.8 6.6 9.6 92 0.6 WNW 22 35 12 19 1019.5 1019.7 0.2
29/04:30am 10.7 7.1 9.8 94 0.5 W 19 28 10 15 1019.8 - 0.2
29/04:00am 10.7 6.9 9.8 94 0.5 W 20 32 11 17 1019.9 1020.1 0.2
29/03:30am 10.6 6.4 9.8 95 0.4 W 22 35 12 19 1019.9 - 0.2
29/03:00am 10.2 6.3 9.6 96 0.3 WNW 20 33 11 18 1019.6 1019.8 0.2
29/02:30am 9.8 6.0 9.2 96 0.3 WNW 19 32 10 17 1019.4 - 0.2
29/02:00am 9.8 6.0 9.2 96 0.3 WNW 19 28 10 15 1019.1 1019.3 0.2
29/01:30am 10.1 5.5 9.5 96 0.3 WNW 24 37 13 20 1019.2 - 0.2
29/01:00am 9.9 6.1 9.1 95 0.4 NW 19 30 10 16 1019.2 1019.4 0.2
29/12:30am 10.2 5.9 9.4 95 0.4 WNW 22 32 12 17 1019.5 - 0.2
29/12:00am 10.2 5.9 9.4 95 0.4 WNW 22 32 12 17 1019.4 1019.6 0.2
 
Date/Time
WST
Temp
°C
App
Temp
°C
Dew
Point
Rel
Hum
%
Delta-T
°C
Wind Press
QNH
hPa
Press
MSL
hPa
Rain
since 9 am
mm
Dir
 
Spd
km/h
Gust
km/h
Spd
kts
Gust
kts
28/11:30pm 10.2 6.5 9.4 95 0.4 WNW 19 28 10 15 1019.5 - 0.2
28/11:00pm 10.1 6.1 9.2 94 0.5 WNW 20 28 11 15 1019.8 1020.0 0.2
28/10:30pm 10.1 6.3 9.2 94 0.5 WNW 19 26 10 14 1019.9 - 0.2
28/10:00pm 10.4 6.7 9.3 93 0.6 WNW 19 28 10 15 1020.1 1020.3 0.0
28/09:30pm 10.5 7.2 9.4 93 0.6 WNW 17 20 9 11 1020.3 - 0.0
28/09:00pm 10.5 7.5 9.1 91 0.7 WNW 15 20 8 11 1020.3 1020.5 0.0
28/08:30pm 11.0 7.7 9.4 90 0.8 WNW 17 22 9 12 1020.2 - 0.0
28/08:00pm 11.3 8.0 9.7 90 0.8 WNW 17 26 9 14 1020.0 1020.2 0.0
28/07:30pm 11.7 9.3 9.9 89 0.9 WNW 13 20 7 11 1019.9 - 0.0
28/07:00pm 12.3 9.2 10.2 87 1.1 WNW 17 26 9 14 1019.7 1019.9 0.0
28/06:30pm 12.0 10.2 9.6 85 1.2 WNW 9 13 5 7 1019.7 - 0.0
28/06:00pm 13.4 10.2 10.0 80 1.8 W 17 26 9 14 1019.2 1019.4 0.0
28/05:30pm 12.7 10.2 9.7 82 1.6 WNW 13 20 7 11 1019.1 - 0.0
28/05:00pm 13.8 10.7 10.4 80 1.8 W 17 30 9 16 1019.0 1019.2 0.0
28/04:30pm 15.3 11.5 9.9 70 2.9 W 20 35 11 19 1018.5 - 0.0
28/04:00pm 15.4 11.7 10.0 70 2.9 WNW 20 30 11 16 1018.6 1018.8 0.0
28/03:30pm 16.4 11.6 10.3 67 3.3 W 26 39 14 21 1018.3 - 0.0
28/03:00pm 15.2 10.2 9.6 69 2.9 W 26 44 14 24 1018.1 1018.2 0.0
28/02:30pm 15.7 9.9 9.4 66 3.3 W 30 50 16 27 1018.1 - 0.0
28/02:22pm 15.8 10.0 9.5 66 3.3 W 30 50 16 27 1018.0 - 0.0
28/02:00pm 15.7 9.5 9.4 66 3.3 WNW 32 48 17 26 1017.7 1017.8 0.0
28/01:30pm 15.7 9.9 9.4 66 3.3 W 30 43 16 23 1017.8 - 0.0
28/01:15pm 16.1 10.7 9.5 65 3.5 W 28 46 15 25 1017.9 - 0.0
28/01:00pm 16.9 10.7 9.3 61 4.0 W 32 48 17 26 1017.9 1018.0 0.0
28/12:30pm 16.7 10.6 9.6 63 3.8 WNW 32 54 17 29 1018.3 - 0.0
28/12:00pm 16.5 9.7 9.4 63 3.7 W 35 56 19 30 1018.5 1018.7 0.0
28/11:30am 16.1 9.9 9.5 65 3.5 W 32 54 17 29 1019.2 - 0.0
28/11:00am 15.6 8.9 9.7 68 3.1 W 35 54 19 29 1019.5 1019.7 0.0
28/10:30am 15.0 9.6 9.4 69 2.9 WNW 28 46 15 25 1019.7 - 0.0
28/10:00am 14.1 9.1 9.7 75 2.3 WNW 26 44 14 24 1019.4 1019.6 0.0
28/09:47am 13.5 8.2 9.7 78 2.0 WNW 28 50 15 27 1019.5 - 0.0
28/09:30am 13.1 8.9 9.9 81 1.7 WNW 22 32 12 17 1019.5 - 0.0
28/09:00am 12.2 8.4 9.8 85 1.2 WNW 20 33 11 18 1019.5 1019.7 0.0
28/08:30am 11.2 7.3 9.5 89 0.9 WNW 20 30 11 16 1019.3 - 0.0
28/08:00am 10.0 6.2 8.9 93 0.5 WNW 19 32 10 17 1018.9 1019.1 0.0
28/07:30am 9.3 5.2 8.5 95 0.4 WNW 20 32 11 17 1018.2 - 0.0
28/07:00am 8.9 4.9 8.1 95 0.4 WNW 19 32 10 17 1018.0 1018.1 0.0
28/06:30am 9.0 5.4 8.2 95 0.4 WNW 17 28 9 15 1018.0 - 0.0
28/06:00am 9.2 6.0 8.4 95 0.4 WNW 15 26 8 14 1018.2 1018.3 0.0
28/05:30am 9.1 5.9 8.5 96 0.3 WNW 15 22 8 12 1018.1 - 0.0

Other Formats:

Comma delimited format used in spreadsheet applications
http://www.bom.gov.au/fwo/IDW60801/IDW60801.95636.axf

JavaScript Object Notation format (JSON) in row-major order
http://www.bom.gov.au/fwo/IDW60801/IDW60801.95636.json